createdAt,value
2023-01-05T00:01:06.987Z,95.09
2023-01-05T00:03:08.419Z,94.90
2023-01-05T00:05:09.972Z,93.86
2023-01-05T00:07:11.424Z,93.94
2023-01-05T00:09:17.512Z,94.21
2023-01-05T00:11:41.036Z,94.32
2023-01-05T00:14:00.825Z,93.93
2023-01-05T00:16:20.663Z,94.36
2023-01-05T00:18:40.595Z,94.91
2023-01-05T00:21:00.570Z,95.31
2023-01-05T00:23:02.453Z,95.14
2023-01-05T00:25:11.739Z,96.06
2023-01-05T00:27:14.208Z,95.28
2023-01-05T00:29:15.660Z,95.60
2023-01-05T00:31:17.157Z,94.68
2023-01-05T00:33:18.681Z,94.38
2023-01-05T00:35:21.478Z,94.02
2023-01-05T00:37:33.908Z,94.17
2023-01-05T00:39:35.376Z,94.15
2023-01-05T00:41:36.883Z,94.58
2023-01-05T00:43:38.340Z,94.23
2023-01-05T00:45:39.840Z,94.89
2023-01-05T00:47:41.665Z,95.03
2023-01-05T00:49:43.146Z,96.07
2023-01-05T00:51:44.591Z,96.13
2023-01-05T00:53:48.163Z,97.32
2023-01-05T00:55:57.042Z,98.86
2023-01-05T00:57:58.497Z,99.50
2023-01-05T01:00:02.133Z,99.52
2023-01-05T01:02:03.912Z,100.00
2023-01-05T01:04:05.567Z,100.00
2023-01-05T01:06:07.102Z,100.00
2023-01-05T01:08:08.537Z,100.00
2023-01-05T01:10:11.261Z,100.00
2023-01-05T01:12:12.737Z,100.00
2023-01-05T01:14:14.715Z,99.80
2023-01-05T01:16:16.316Z,99.70
2023-01-05T01:18:17.909Z,99.36
2023-01-05T01:20:20.191Z,99.64
2023-01-05T01:22:21.708Z,99.87
2023-01-05T01:24:25.981Z,100.00
2023-01-05T01:26:27.457Z,100.00
2023-01-05T01:28:28.900Z,100.00
2023-01-05T01:30:30.417Z,99.96
2023-01-05T01:32:31.938Z,100.00
2023-01-05T01:34:33.499Z,100.00
2023-01-05T01:36:35.125Z,100.00
2023-01-05T01:38:36.620Z,100.00
2023-01-05T01:40:43.526Z,100.00
2023-01-05T01:42:44.959Z,100.00
2023-01-05T01:44:53.848Z,100.00
2023-01-05T01:46:55.558Z,100.00
2023-01-05T01:49:02.673Z,99.96
2023-01-05T01:51:14.302Z,99.78
2023-01-05T01:53:20.733Z,99.86
2023-01-05T01:55:22.755Z,99.17
2023-01-05T01:57:28.073Z,98.71
2023-01-05T01:59:29.730Z,99.10
2023-01-05T02:01:31.844Z,98.71
2023-01-05T02:03:33.376Z,98.52
2023-01-05T02:05:38.024Z,98.38
2023-01-05T02:07:44.759Z,97.84
2023-01-05T02:09:46.756Z,98.11
2023-01-05T02:12:05.242Z,97.45
2023-01-05T02:14:26.258Z,97.31
2023-01-05T02:16:52.578Z,96.88
2023-01-05T02:19:07.232Z,96.65
2023-01-05T02:21:18.867Z,97.19
2023-01-05T02:23:48.258Z,96.07
2023-01-05T02:26:11.361Z,95.84
2023-01-05T02:28:39.480Z,95.91
2023-01-05T02:30:59.465Z,95.73
2023-01-05T02:33:54.901Z,95.85
2023-01-05T02:36:16.351Z,96.87
2023-01-05T02:38:37.615Z,97.26
2023-01-05T02:40:49.978Z,98.05
2023-01-05T02:42:55.240Z,99.03
2023-01-05T02:44:56.730Z,99.90
2023-01-05T02:47:28.292Z,100.00
2023-01-05T02:49:32.894Z,100.00
2023-01-05T02:51:40.589Z,100.00
2023-01-05T02:53:49.626Z,100.00
2023-01-05T02:55:59.381Z,100.00
2023-01-05T02:58:10.987Z,100.00
2023-01-05T03:00:26.912Z,100.00
2023-01-05T03:02:31.603Z,100.00
2023-01-05T03:05:09.826Z,99.71
2023-01-05T03:07:15.255Z,99.22
2023-01-05T03:09:25.984Z,99.15
2023-01-05T03:11:55.701Z,99.20
2023-01-05T03:14:08.559Z,99.00
2023-01-05T03:16:15.147Z,99.17
2023-01-05T03:18:20.292Z,98.64
2023-01-05T03:20:25.102Z,98.81
2023-01-05T03:22:48.810Z,97.97
2023-01-05T03:25:09.529Z,97.78
2023-01-05T03:27:30.981Z,97.90
2023-01-05T03:29:50.761Z,98.07
2023-01-05T03:32:18.047Z,98.50
2023-01-05T03:34:46.061Z,98.01
2023-01-05T03:36:58.472Z,97.92
2023-01-05T03:39:02.399Z,97.57
2023-01-05T03:41:10.207Z,97.00
2023-01-05T03:43:12.237Z,96.37
2023-01-05T03:45:15.500Z,96.08
2023-01-05T03:47:17.028Z,96.27
2023-01-05T03:49:18.842Z,96.11
2023-01-05T03:51:20.400Z,95.84
2023-01-05T03:53:21.894Z,95.65
2023-01-05T03:55:23.969Z,95.51
2023-01-05T03:57:25.458Z,94.70
2023-01-05T03:59:26.920Z,95.16
2023-01-05T04:01:28.488Z,95.27
2023-01-05T04:03:32.234Z,94.28
2023-01-05T04:05:33.965Z,93.55
2023-01-05T04:07:35.436Z,93.77
2023-01-05T04:09:36.904Z,93.80
2023-01-05T04:11:38.342Z,93.40
2023-01-05T04:13:40.022Z,93.20
2023-01-05T04:15:41.789Z,92.88
2023-01-05T04:17:43.280Z,92.86
2023-01-05T04:19:44.833Z,93.21
2023-01-05T04:21:46.290Z,93.32
2023-01-05T04:23:47.764Z,93.51
2023-01-05T04:25:49.230Z,93.59
2023-01-05T04:27:50.685Z,93.56
2023-01-05T04:29:52.174Z,93.94
2023-01-05T04:31:53.651Z,93.55
2023-01-05T04:33:55.123Z,92.47
2023-01-05T04:35:56.631Z,92.51
2023-01-05T04:37:58.221Z,92.87
2023-01-05T04:39:59.682Z,92.89
2023-01-05T04:42:01.357Z,93.27
2023-01-05T04:44:02.818Z,93.49
2023-01-05T04:46:04.486Z,93.91
2023-01-05T04:48:06.198Z,95.67
2023-01-05T04:50:08.492Z,96.18
2023-01-05T04:52:10.244Z,96.45
2023-01-05T04:54:11.711Z,97.05
2023-01-05T04:56:13.183Z,97.50
2023-01-05T04:58:14.641Z,97.56
2023-01-05T05:00:16.447Z,97.53
2023-01-05T05:02:18.042Z,98.56
2023-01-05T05:04:19.601Z,98.08
2023-01-05T05:06:21.851Z,99.33
2023-01-05T05:08:23.351Z,98.56
2023-01-05T05:10:24.891Z,99.25
2023-01-05T05:12:26.360Z,99.51
2023-01-05T05:14:27.814Z,100.00
2023-01-05T05:16:29.347Z,99.92
2023-01-05T05:18:30.872Z,100.00
2023-01-05T05:20:32.698Z,100.00
2023-01-05T05:22:34.181Z,100.00
2023-01-05T05:24:35.649Z,100.00
2023-01-05T05:26:37.119Z,100.00
2023-01-05T05:28:38.878Z,100.00
2023-01-05T05:30:40.348Z,99.60
2023-01-05T05:32:44.421Z,99.64
2023-01-05T05:34:46.180Z,99.89
2023-01-05T05:36:47.646Z,98.89
2023-01-05T05:38:49.135Z,98.79
2023-01-05T05:40:50.637Z,98.26
2023-01-05T05:42:52.185Z,98.06
2023-01-05T05:44:53.694Z,97.65
2023-01-05T05:46:55.280Z,97.22
2023-01-05T05:48:58.235Z,97.17
2023-01-05T05:50:59.744Z,97.38
2023-01-05T05:53:01.232Z,97.40
2023-01-05T05:55:02.837Z,96.58
2023-01-05T05:57:04.367Z,96.63
2023-01-05T05:59:05.907Z,96.92
2023-01-05T06:01:07.824Z,97.14
2023-01-05T06:03:09.725Z,96.50
2023-01-05T06:05:11.282Z,96.50
2023-01-05T06:07:12.852Z,96.56
2023-01-05T06:09:14.430Z,96.50
2023-01-05T06:11:16.045Z,96.41
2023-01-05T06:13:17.805Z,96.31
2023-01-05T06:15:19.247Z,95.74
2023-01-05T06:17:20.713Z,96.00
2023-01-05T06:19:22.198Z,95.71
2023-01-05T06:21:23.697Z,95.25
2023-01-05T06:23:25.230Z,95.31
2023-01-05T06:25:26.678Z,94.59
2023-01-05T06:27:28.244Z,94.31
2023-01-05T06:29:29.792Z,94.02
2023-01-05T06:31:31.333Z,93.74
2023-01-05T06:33:32.848Z,93.58
2023-01-05T06:35:34.302Z,94.24
2023-01-05T06:37:35.848Z,94.47
2023-01-05T06:39:37.353Z,95.04
2023-01-05T06:41:38.822Z,95.81
2023-01-05T06:43:40.280Z,95.17
2023-01-05T06:45:41.822Z,95.19
2023-01-05T06:47:44.266Z,94.81
2023-01-05T06:49:45.734Z,95.27
2023-01-05T06:51:47.265Z,94.80
2023-01-05T06:53:48.713Z,95.14
2023-01-05T06:55:50.169Z,95.04
2023-01-05T06:57:57.087Z,95.27
2023-01-05T07:00:06.444Z,95.47
2023-01-05T07:02:15.974Z,96.14
2023-01-05T07:04:17.687Z,95.90
2023-01-05T07:06:19.337Z,95.95
2023-01-05T07:08:20.833Z,95.54
2023-01-05T07:10:22.297Z,96.07
2023-01-05T07:12:23.800Z,96.65
2023-01-05T07:14:25.279Z,96.52
2023-01-05T07:16:27.195Z,96.46
2023-01-05T07:18:28.700Z,96.56
2023-01-05T07:20:30.236Z,97.00
2023-01-05T07:22:32.098Z,96.41
2023-01-05T07:24:33.670Z,96.87
2023-01-05T07:26:35.118Z,97.22
2023-01-05T07:28:37.993Z,98.07
2023-01-05T07:30:39.441Z,98.77
2023-01-05T07:32:40.897Z,99.39
2023-01-05T07:34:47.500Z,99.51
2023-01-05T07:36:56.004Z,99.75
2023-01-05T07:38:59.515Z,99.68
2023-01-05T07:41:02.163Z,99.00
2023-01-05T07:43:03.697Z,99.20
2023-01-05T07:45:05.744Z,98.14
2023-01-05T07:47:07.271Z,97.01
2023-01-05T07:49:08.738Z,96.60
2023-01-05T07:51:10.959Z,95.75
2023-01-05T07:53:12.412Z,95.42
2023-01-05T07:55:14.149Z,95.17
2023-01-05T07:57:15.629Z,94.49
2023-01-05T07:59:17.218Z,95.29
2023-01-05T08:01:18.780Z,94.95
2023-01-05T08:03:20.409Z,94.17
2023-01-05T08:05:21.918Z,94.29
2023-01-05T08:07:23.387Z,94.36
2023-01-05T08:09:43.607Z,94.50
2023-01-05T08:11:45.056Z,93.70
2023-01-05T08:14:02.660Z,93.36
2023-01-05T08:16:04.766Z,92.49
2023-01-05T08:18:06.278Z,92.59
2023-01-05T08:20:08.175Z,92.05
2023-01-05T08:22:09.620Z,91.18
2023-01-05T08:24:11.154Z,91.14
2023-01-05T08:26:17.703Z,89.64
2023-01-05T08:28:19.225Z,89.27
2023-01-05T08:30:20.831Z,89.02
2023-01-05T08:32:23.279Z,88.49
2023-01-05T08:34:27.662Z,89.09
2023-01-05T08:36:33.372Z,89.50
2023-01-05T08:38:34.833Z,89.11
2023-01-05T08:40:37.937Z,89.00
2023-01-05T08:42:40.594Z,89.97
2023-01-05T08:44:42.106Z,89.78
2023-01-05T08:46:43.686Z,90.50
2023-01-05T08:48:48.858Z,90.62
2023-01-05T08:50:50.337Z,91.00
2023-01-05T08:52:51.809Z,90.56
2023-01-05T08:54:53.318Z,91.01
2023-01-05T08:56:54.863Z,91.45
2023-01-05T08:58:57.524Z,90.88
2023-01-05T09:00:59.119Z,91.69
2023-01-05T09:03:01.326Z,91.36
2023-01-05T09:05:03.130Z,91.29
2023-01-05T09:07:04.650Z,91.31
2023-01-05T09:09:06.387Z,92.02
2023-01-05T09:11:14.402Z,91.17
2023-01-05T09:13:15.917Z,91.24
2023-01-05T09:15:17.490Z,91.45
2023-01-05T09:17:19.027Z,91.73
2023-01-05T09:19:20.528Z,91.14
2023-01-05T09:21:22.012Z,91.38
2023-01-05T09:23:23.486Z,91.05
2023-01-05T09:25:24.955Z,91.22
2023-01-05T09:27:26.466Z,91.22
2023-01-05T09:29:27.926Z,91.48
2023-01-05T09:31:29.844Z,91.06
2023-01-05T09:33:31.329Z,90.87
2023-01-05T09:35:32.798Z,90.83
2023-01-05T09:37:34.367Z,90.34
2023-01-05T09:39:35.926Z,90.62
2023-01-05T09:41:44.892Z,90.83
2023-01-05T09:43:48.945Z,90.12
2023-01-05T09:45:50.752Z,89.75
2023-01-05T09:47:55.182Z,89.53
2023-01-05T09:49:58.878Z,89.32
2023-01-05T09:52:03.011Z,90.22
2023-01-05T09:54:04.737Z,89.86
2023-01-05T09:56:28.157Z,89.53
2023-01-05T09:58:42.752Z,89.45
2023-01-05T10:00:57.669Z,89.34
2023-01-05T10:03:02.800Z,88.95
2023-01-05T10:05:06.349Z,89.09
2023-01-05T10:07:20.937Z,89.00
2023-01-05T10:09:27.633Z,87.79
2023-01-05T10:12:08.781Z,87.65
2023-01-05T10:14:16.101Z,87.81
2023-01-05T10:16:17.985Z,87.31
2023-01-05T10:18:29.593Z,87.30
2023-01-05T10:21:08.663Z,87.22
2023-01-05T10:23:42.565Z,87.61
2023-01-05T10:25:53.158Z,87.79
2023-01-05T10:27:56.822Z,87.66
2023-01-05T10:30:22.032Z,87.47
2023-01-05T10:32:26.823Z,87.76
2023-01-05T10:34:59.468Z,87.06
2023-01-05T10:37:23.610Z,87.20
2023-01-05T10:39:55.732Z,87.12
2023-01-05T10:42:16.429Z,87.24
2023-01-05T10:44:45.413Z,86.34
2023-01-05T10:46:52.746Z,86.96
2023-01-05T10:48:54.574Z,86.88
2023-01-05T10:50:57.576Z,87.39
2023-01-05T10:53:00.108Z,86.76
2023-01-05T10:55:02.306Z,87.01
2023-01-05T10:57:33.986Z,86.16
2023-01-05T10:59:58.389Z,85.11
2023-01-05T11:02:00.161Z,85.39
2023-01-05T11:04:33.770Z,83.54
2023-01-05T11:06:37.732Z,82.45
2023-01-05T11:08:39.216Z,82.04
2023-01-05T11:11:01.533Z,79.05
2023-01-05T11:13:05.546Z,77.23
2023-01-05T11:15:15.153Z,73.47
2023-01-05T11:17:20.603Z,70.78
2023-01-05T11:19:29.757Z,69.58
2023-01-05T11:21:39.414Z,68.71
2023-01-05T11:23:49.740Z,68.03
2023-01-05T11:25:51.265Z,67.13
2023-01-05T11:28:12.750Z,67.26
2023-01-05T11:30:24.494Z,64.47
2023-01-05T11:32:26.149Z,64.08
2023-01-05T11:34:48.521Z,63.32
2023-01-05T11:37:03.930Z,63.65
2023-01-05T11:39:24.163Z,63.25
2023-01-05T11:41:25.739Z,62.97
2023-01-05T11:43:30.390Z,63.65
2023-01-05T11:45:41.375Z,67.33
2023-01-05T11:47:48.956Z,67.02
2023-01-05T11:50:09.706Z,67.77
2023-01-05T11:52:26.588Z,69.00
2023-01-05T11:54:38.278Z,71.44
2023-01-05T11:56:39.802Z,71.58
2023-01-05T11:58:45.708Z,72.28
2023-01-05T12:01:25.650Z,74.09
2023-01-05T12:04:03.821Z,75.09
2023-01-05T12:06:27.238Z,75.02
2023-01-05T12:08:41.578Z,75.31
2023-01-05T12:11:11.286Z,75.45
2023-01-05T12:13:41.625Z,77.32
2023-01-05T12:15:50.287Z,75.92
2023-01-05T12:18:00.450Z,75.53
2023-01-05T12:20:33.130Z,74.64
2023-01-05T12:23:02.404Z,75.42
2023-01-05T12:25:26.146Z,76.80
2023-01-05T12:28:08.995Z,78.03
2023-01-05T12:35:50.048Z,78.08
2023-01-05T12:38:09.900Z,78.08
2023-01-05T12:40:37.085Z,77.70
2023-01-05T12:42:59.594Z,78.03
2023-01-05T12:45:26.701Z,78.03
2023-01-05T12:47:37.219Z,77.37
2023-01-05T12:49:51.707Z,77.94
2023-01-05T12:52:15.844Z,77.02
2023-01-05T12:54:31.438Z,77.31
2023-01-05T12:56:41.856Z,77.80
2023-01-05T12:58:54.402Z,77.32
2023-01-05T13:00:57.691Z,77.04
2023-01-05T13:03:08.417Z,76.03
2023-01-05T13:05:31.191Z,75.54
2023-01-05T13:07:46.313Z,75.76
2023-01-05T13:10:02.092Z,75.92
2023-01-05T13:12:13.625Z,76.52
2023-01-05T13:14:21.719Z,75.98
2023-01-05T13:16:27.519Z,76.47
2023-01-05T13:18:30.395Z,77.22
2023-01-05T13:20:43.139Z,75.78
2023-01-05T13:22:47.522Z,75.25
2023-01-05T13:25:10.645Z,74.64
2023-01-05T13:27:13.800Z,73.89
2023-01-05T13:29:27.634Z,74.94
2023-01-05T13:31:38.531Z,75.07
2023-01-05T13:34:04.788Z,74.95
2023-01-05T13:36:25.775Z,74.70
2023-01-05T13:38:30.243Z,74.16
2023-01-05T13:40:56.647Z,75.86
2023-01-05T13:43:31.128Z,76.98
2023-01-05T13:45:52.389Z,75.82
2023-01-05T13:48:38.655Z,75.82
2023-01-05T13:51:12.799Z,75.28
2023-01-05T13:53:24.758Z,75.32
2023-01-05T13:55:27.395Z,76.46
2023-01-05T13:57:35.363Z,76.65
2023-01-05T13:59:46.713Z,77.14
2023-01-05T14:01:56.307Z,77.79
2023-01-05T14:03:57.889Z,77.38
2023-01-05T14:06:02.626Z,78.33
2023-01-05T14:08:13.981Z,78.14
2023-01-05T14:10:27.941Z,79.00
2023-01-05T14:12:46.059Z,79.56
2023-01-05T14:15:02.107Z,80.22
2023-01-05T14:17:03.583Z,79.91
2023-01-05T14:19:25.280Z,80.48
2023-01-05T14:21:51.470Z,80.77
2023-01-05T14:23:57.839Z,81.50
2023-01-05T14:26:01.204Z,81.14
2023-01-05T14:28:35.933Z,81.94
2023-01-05T14:30:37.390Z,82.11
2023-01-05T14:32:41.380Z,81.88
2023-01-05T14:34:48.976Z,82.76
2023-01-05T14:36:56.668Z,82.53
2023-01-05T14:39:18.328Z,82.97
2023-01-05T14:41:26.711Z,82.06
2023-01-05T14:43:30.697Z,82.22
2023-01-05T14:45:36.545Z,81.39
2023-01-05T14:47:37.986Z,81.47
2023-01-05T14:49:54.507Z,81.35
2023-01-05T14:52:01.201Z,81.85
2023-01-05T14:54:05.425Z,82.07
2023-01-05T14:56:06.869Z,81.26
2023-01-05T14:58:13.023Z,81.09
2023-01-05T15:00:30.452Z,82.03
2023-01-05T15:02:37.726Z,81.28
2023-01-05T15:04:41.468Z,81.02
2023-01-05T15:07:10.214Z,81.40
2023-01-05T15:09:26.795Z,81.44
2023-01-05T15:11:47.447Z,81.43
2023-01-05T15:14:37.516Z,81.62
2023-01-05T15:16:56.472Z,81.34
2023-01-05T15:19:18.964Z,81.85
2023-01-05T15:21:53.423Z,81.56
2023-01-05T15:24:28.616Z,81.70
2023-01-05T15:26:30.048Z,81.24
2023-01-05T15:28:34.508Z,80.80
2023-01-05T15:30:44.380Z,81.63
2023-01-05T15:32:52.884Z,81.32
2023-01-05T15:35:09.361Z,81.32
2023-01-05T15:37:33.759Z,81.23
2023-01-05T15:40:04.345Z,81.35
2023-01-05T15:42:08.415Z,81.32
2023-01-05T15:44:16.498Z,81.90
2023-01-05T15:46:26.224Z,82.33
2023-01-05T15:48:34.169Z,83.07
2023-01-05T15:50:47.692Z,83.92
2023-01-05T15:53:02.273Z,84.34
2023-01-05T15:55:16.354Z,84.82
2023-01-05T15:57:20.679Z,86.04
2023-01-05T15:59:32.820Z,86.35
2023-01-05T16:01:37.793Z,87.16
2023-01-05T16:03:41.949Z,87.87
2023-01-05T16:05:43.568Z,88.17
2023-01-05T16:07:59.817Z,88.98
2023-01-05T16:10:01.364Z,88.58
2023-01-05T16:12:23.335Z,89.27
2023-01-05T16:14:31.412Z,89.44
2023-01-05T16:16:52.572Z,90.22
2023-01-05T16:19:00.538Z,90.32
2023-01-05T16:21:34.345Z,90.44
2023-01-05T16:23:42.098Z,90.74
2023-01-05T16:25:54.367Z,91.33
2023-01-05T16:28:03.378Z,91.93
2023-01-05T16:30:28.518Z,91.81
2023-01-05T16:32:36.872Z,92.49
2023-01-05T16:34:38.363Z,93.12
2023-01-05T16:36:39.866Z,92.72
2023-01-05T16:38:41.712Z,92.87
2023-01-05T16:40:45.957Z,93.31
2023-01-05T16:42:50.542Z,93.76
2023-01-05T16:44:56.563Z,94.45
2023-01-05T16:47:09.649Z,94.39
2023-01-05T16:49:33.091Z,95.08
2023-01-05T16:51:37.214Z,95.13
2023-01-05T16:53:44.918Z,95.44
2023-01-05T16:55:46.395Z,95.12
2023-01-05T16:57:47.857Z,95.81
2023-01-05T16:59:52.757Z,95.77
2023-01-05T17:01:54.268Z,95.84
2023-01-05T17:03:55.826Z,96.37
2023-01-05T17:05:59.242Z,97.50
2023-01-05T17:08:17.930Z,97.36
2023-01-05T17:10:21.287Z,97.83
2023-01-05T17:12:22.799Z,98.52
2023-01-05T17:14:26.565Z,98.02
2023-01-05T17:16:28.454Z,98.52
2023-01-05T17:18:30.685Z,98.84
2023-01-05T17:22:44.578Z,99.18
2023-01-05T17:24:46.302Z,99.00
2023-01-05T17:26:47.786Z,99.16
2023-01-05T17:28:49.854Z,99.51
2023-01-05T17:30:52.508Z,100.00
2023-01-05T17:32:54.072Z,99.50
2023-01-05T17:34:55.570Z,99.35
2023-01-05T17:36:59.765Z,99.61
2023-01-05T17:39:01.661Z,100.00
2023-01-05T17:41:03.252Z,100.00
2023-01-05T17:43:05.338Z,100.00
2023-01-05T17:45:07.225Z,100.00
2023-01-05T17:47:08.747Z,100.00
2023-01-05T17:49:15.985Z,100.00
2023-01-05T17:51:17.597Z,100.00
2023-01-05T17:53:19.044Z,100.00
2023-01-05T17:55:21.633Z,100.00
2023-01-05T17:57:23.222Z,100.00
2023-01-05T17:59:24.821Z,100.00
2023-01-05T18:01:26.346Z,100.00
2023-01-05T18:03:27.841Z,100.00
2023-01-05T18:05:29.357Z,100.00
2023-01-05T18:07:32.050Z,100.00
2023-01-05T18:09:35.329Z,100.00
2023-01-05T18:11:36.834Z,100.00
2023-01-05T18:13:38.474Z,100.00
2023-01-05T18:15:44.914Z,100.00
2023-01-05T18:17:46.760Z,100.00
2023-01-05T18:19:48.400Z,100.00
2023-01-05T18:21:49.880Z,100.00
2023-01-05T18:23:51.387Z,100.00
2023-01-05T18:25:52.909Z,100.00
2023-01-05T18:27:54.421Z,100.00
2023-01-05T18:29:56.715Z,100.00
2023-01-05T18:31:58.147Z,100.00
2023-01-05T18:33:59.724Z,100.00
2023-01-05T18:38:08.712Z,100.00
2023-01-05T18:40:11.087Z,100.00
2023-01-05T18:42:12.623Z,100.00
2023-01-05T18:44:14.192Z,100.00
2023-01-05T18:46:15.720Z,100.00
2023-01-05T18:48:17.244Z,100.00
2023-01-05T18:50:18.946Z,100.00
2023-01-05T18:52:20.737Z,100.00
2023-01-05T18:54:22.305Z,100.00
2023-01-05T18:56:23.780Z,100.00
2023-01-05T18:58:25.269Z,100.00
2023-01-05T19:00:26.745Z,100.00
2023-01-05T19:02:29.453Z,100.00
2023-01-05T19:04:30.970Z,100.00
2023-01-05T19:06:32.463Z,100.00
2023-01-05T19:08:34.269Z,100.00
2023-01-05T19:10:36.204Z,100.00
2023-01-05T19:12:37.679Z,100.00
2023-01-05T19:14:39.180Z,100.00
2023-01-05T19:16:41.111Z,100.00
2023-01-05T19:18:43.756Z,100.00
2023-01-05T19:20:45.216Z,100.00
2023-01-05T19:22:47.869Z,100.00
2023-01-05T19:24:49.318Z,100.00
2023-01-05T19:26:51.219Z,100.00
2023-01-05T19:28:52.733Z,100.00
2023-01-05T19:30:54.239Z,100.00
2023-01-05T19:32:55.755Z,100.00
2023-01-05T19:34:57.226Z,100.00
2023-01-05T19:36:58.762Z,100.00
2023-01-05T19:39:11.453Z,100.00
2023-01-05T19:41:18.513Z,100.00
2023-01-05T19:43:19.966Z,100.00
2023-01-05T19:45:21.628Z,100.00
2023-01-05T19:47:23.106Z,100.00
2023-01-05T19:49:26.584Z,100.00
2023-01-05T19:51:29.749Z,100.00
2023-01-05T19:53:33.481Z,100.00
2023-01-05T19:55:38.752Z,100.00
2023-01-05T19:57:40.319Z,100.00
2023-01-05T19:59:41.843Z,100.00
2023-01-05T20:01:43.435Z,100.00
2023-01-05T20:03:46.849Z,100.00
2023-01-05T20:05:48.277Z,100.00
2023-01-05T20:07:49.741Z,100.00
2023-01-05T20:09:51.479Z,100.00
2023-01-05T20:12:12.674Z,100.00
2023-01-05T20:14:15.114Z,100.00
2023-01-05T20:16:16.619Z,100.00
2023-01-05T20:18:18.116Z,100.00
2023-01-05T20:20:19.686Z,100.00
2023-01-05T20:22:21.142Z,100.00
2023-01-05T20:24:25.283Z,100.00
2023-01-05T20:26:28.182Z,100.00
2023-01-05T20:28:29.636Z,100.00
2023-01-05T20:30:34.313Z,100.00
2023-01-05T20:32:36.331Z,100.00
2023-01-05T20:34:39.641Z,100.00
2023-01-05T20:36:41.369Z,100.00
2023-01-05T20:38:43.439Z,100.00
2023-01-05T20:40:44.913Z,100.00
2023-01-05T20:42:46.460Z,100.00
2023-01-05T20:44:48.132Z,100.00
2023-01-05T20:46:51.701Z,100.00
2023-01-05T20:48:54.013Z,100.00
2023-01-05T20:51:05.419Z,100.00
2023-01-05T20:53:06.963Z,100.00
2023-01-05T20:55:08.509Z,100.00
2023-01-05T20:57:10.216Z,100.00
2023-01-05T20:59:17.885Z,100.00
2023-01-05T21:01:19.983Z,100.00
2023-01-05T21:03:21.476Z,100.00
2023-01-05T21:05:23.058Z,100.00
2023-01-05T21:07:24.763Z,100.00
2023-01-05T21:09:28.404Z,100.00
2023-01-05T21:11:29.877Z,100.00
2023-01-05T21:13:33.109Z,100.00
2023-01-05T21:15:34.801Z,100.00
2023-01-05T21:17:36.282Z,100.00
2023-01-05T21:19:37.901Z,100.00
2023-01-05T21:21:39.360Z,100.00
2023-01-05T21:23:41.262Z,100.00
2023-01-05T21:26:05.692Z,100.00
2023-01-05T21:28:05.766Z,100.00
2023-01-05T21:30:08.150Z,100.00
2023-01-05T21:32:09.687Z,100.00
2023-01-05T21:34:11.744Z,100.00
2023-01-05T21:36:19.402Z,100.00
2023-01-05T21:38:20.855Z,100.00
2023-01-05T21:40:27.744Z,100.00
2023-01-05T21:42:42.489Z,100.00
2023-01-05T21:44:44.040Z,100.00
2023-01-05T21:46:46.735Z,100.00
2023-01-05T21:48:48.173Z,100.00
2023-01-05T21:51:08.235Z,100.00
2023-01-05T21:53:33.626Z,100.00
2023-01-05T21:55:53.531Z,100.00
2023-01-05T21:57:55.103Z,100.00
2023-01-05T21:59:56.586Z,100.00
2023-01-05T22:01:58.212Z,100.00
2023-01-05T22:03:59.778Z,100.00
2023-01-05T22:06:01.286Z,100.00
2023-01-05T22:08:02.818Z,100.00
2023-01-05T22:10:05.106Z,100.00
2023-01-05T22:12:09.969Z,100.00
2023-01-05T22:14:11.457Z,100.00
2023-01-05T22:16:13.059Z,100.00
2023-01-05T22:18:14.599Z,100.00
2023-01-05T22:20:16.236Z,100.00
2023-01-05T22:22:17.710Z,100.00
2023-01-05T22:24:19.610Z,100.00
2023-01-05T22:26:21.228Z,100.00
2023-01-05T22:28:22.684Z,100.00
2023-01-05T22:30:25.984Z,100.00
2023-01-05T22:32:27.452Z,100.00
2023-01-05T22:34:28.912Z,100.00
2023-01-05T22:36:31.089Z,100.00
2023-01-05T22:38:38.877Z,100.00
2023-01-05T22:40:40.428Z,100.00
2023-01-05T22:42:41.924Z,100.00
2023-01-05T22:44:43.463Z,100.00
2023-01-05T22:46:44.935Z,100.00
2023-01-05T22:48:48.851Z,100.00
2023-01-05T22:50:50.301Z,100.00
2023-01-05T22:52:51.765Z,100.00
2023-01-05T22:54:53.301Z,100.00
2023-01-05T22:56:54.766Z,100.00
2023-01-05T22:58:57.186Z,100.00
2023-01-05T23:01:22.783Z,100.00
2023-01-05T23:03:24.263Z,100.00
2023-01-05T23:05:25.989Z,100.00
2023-01-05T23:07:27.539Z,100.00
2023-01-05T23:09:29.068Z,100.00
2023-01-05T23:11:34.392Z,100.00
2023-01-05T23:13:36.557Z,100.00
2023-01-05T23:15:38.009Z,100.00
2023-01-05T23:17:39.473Z,100.00
2023-01-05T23:19:40.904Z,100.00
2023-01-05T23:21:42.623Z,100.00
2023-01-05T23:23:44.565Z,100.00
2023-01-05T23:25:46.784Z,100.00
2023-01-05T23:27:48.250Z,100.00
2023-01-05T23:29:49.703Z,100.00
2023-01-05T23:31:51.167Z,100.00
2023-01-05T23:33:52.743Z,100.00
2023-01-05T23:35:55.381Z,100.00
2023-01-05T23:37:56.823Z,100.00
2023-01-05T23:39:58.290Z,100.00
2023-01-05T23:41:59.791Z,100.00
2023-01-05T23:44:01.308Z,100.00
2023-01-05T23:46:09.421Z,100.00
2023-01-05T23:48:11.999Z,100.00
2023-01-05T23:50:13.476Z,100.00
2023-01-05T23:52:14.927Z,100.00
2023-01-05T23:54:16.449Z,100.00
2023-01-05T23:56:20.936Z,100.00
2023-01-05T23:58:22.389Z,100.00
